sensor_id;sensor_type;location;lat;lon;timestamp;temperature;humidity
52321;DHT22;38261;54.090;13.382;2023-07-31T01:20:54;14.10;99.90
52321;DHT22;38261;54.090;13.382;2023-07-31T01:23:21;14.20;99.90
52321;DHT22;38261;54.090;13.382;2023-07-31T01:24:20;14.20;99.90
52321;DHT22;38261;54.090;13.382;2023-07-31T01:28:07;14.10;99.90
52321;DHT22;38261;54.090;13.382;2023-07-31T01:29:43;14.10;99.90
52321;DHT22;38261;54.090;13.382;2023-07-31T01:31:07;14.00;99.90
52321;DHT22;38261;54.090;13.382;2023-07-31T01:32:32;14.00;99.90
52321;DHT22;38261;54.090;13.382;2023-07-31T01:33:57;14.00;99.90
52321;DHT22;38261;54.090;13.382;2023-07-31T01:35:21;14.00;99.90
52321;DHT22;38261;54.090;13.382;2023-07-31T01:36:44;14.00;99.90
52321;DHT22;38261;54.090;13.382;2023-07-31T01:38:06;13.90;99.90
52321;DHT22;38261;54.090;13.382;2023-07-31T01:39:28;14.00;99.90
52321;DHT22;38261;54.090;13.382;2023-07-31T01:40:53;14.00;99.90
52321;DHT22;38261;54.090;13.382;2023-07-31T01:42:15;14.00;99.90
52321;DHT22;38261;54.090;13.382;2023-07-31T01:43:37;14.00;99.90
52321;DHT22;38261;54.090;13.382;2023-07-31T01:44:59;13.90;99.90
52321;DHT22;38261;54.090;13.382;2023-07-31T01:46:21;13.90;99.90
52321;DHT22;38261;54.090;13.382;2023-07-31T01:47:44;14.00;99.90
52321;DHT22;38261;54.090;13.382;2023-07-31T01:49:06;13.90;99.90
52321;DHT22;38261;54.090;13.382;2023-07-31T01:50:28;14.00;99.90
52321;DHT22;38261;54.090;13.382;2023-07-31T01:51:50;13.90;99.90
52321;DHT22;38261;54.090;13.382;2023-07-31T01:53:12;13.90;99.90
52321;DHT22;38261;54.090;13.382;2023-07-31T01:54:35;13.90;99.90
52321;DHT22;38261;54.090;13.382;2023-07-31T01:55:58;13.80;99.90
52321;DHT22;38261;54.090;13.382;2023-07-31T01:57:21;13.80;99.90
52321;DHT22;38261;54.090;13.382;2023-07-31T01:58:43;13.80;99.90
52321;DHT22;38261;54.090;13.382;2023-07-31T02:00:05;13.80;99.90
52321;DHT22;38261;54.090;13.382;2023-07-31T02:01:27;13.80;99.90
52321;DHT22;38261;54.090;13.382;2023-07-31T02:02:50;13.80;99.90
52321;DHT22;38261;54.090;13.382;2023-07-31T02:04:12;13.80;99.90
52321;DHT22;38261;54.090;13.382;2023-07-31T02:05:34;13.80;99.90
52321;DHT22;38261;54.090;13.382;2023-07-31T02:06:56;13.80;99.90
52321;DHT22;38261;54.090;13.382;2023-07-31T02:08:18;13.80;99.90
52321;DHT22;38261;54.090;13.382;2023-07-31T02:09:40;13.80;99.90
52321;DHT22;38261;54.090;13.382;2023-07-31T02:11:03;13.70;99.90
52321;DHT22;38261;54.090;13.382;2023-07-31T02:12:25;13.70;99.90
52321;DHT22;38261;54.090;13.382;2023-07-31T02:13:47;13.70;99.90
52321;DHT22;38261;54.090;13.382;2023-07-31T02:15:09;13.70;99.90
52321;DHT22;38261;54.090;13.382;2023-07-31T02:16:32;13.70;99.90
52321;DHT22;38261;54.090;13.382;2023-07-31T02:17:54;13.70;99.90
52321;DHT22;38261;54.090;13.382;2023-07-31T02:19:16;13.70;99.90
52321;DHT22;38261;54.090;13.382;2023-07-31T02:20:38;13.70;99.90
52321;DHT22;38261;54.090;13.382;2023-07-31T02:22:00;13.70;99.90
52321;DHT22;38261;54.090;13.382;2023-07-31T02:23:22;13.70;99.90
52321;DHT22;38261;54.090;13.382;2023-07-31T02:24:44;13.70;99.90
52321;DHT22;38261;54.090;13.382;2023-07-31T02:26:07;13.70;99.90
52321;DHT22;38261;54.090;13.382;2023-07-31T02:27:29;13.70;99.90
52321;DHT22;38261;54.090;13.382;2023-07-31T02:28:51;13.70;99.90
52321;DHT22;38261;54.090;13.382;2023-07-31T02:30:13;13.70;99.90
52321;DHT22;38261;54.090;13.382;2023-07-31T02:31:35;13.70;99.90
52321;DHT22;38261;54.090;13.382;2023-07-31T02:32:57;13.70;99.90
52321;DHT22;38261;54.090;13.382;2023-07-31T02:34:20;13.70;99.90
52321;DHT22;38261;54.090;13.382;2023-07-31T02:35:42;13.70;99.90
52321;DHT22;38261;54.090;13.382;2023-07-31T02:37:04;13.60;99.90
52321;DHT22;38261;54.090;13.382;2023-07-31T02:38:26;13.60;99.90
52321;DHT22;38261;54.090;13.382;2023-07-31T02:39:49;13.60;99.90
52321;DHT22;38261;54.090;13.382;2023-07-31T02:41:11;13.60;99.90
52321;DHT22;38261;54.090;13.382;2023-07-31T02:42:33;13.60;99.90
52321;DHT22;38261;54.090;13.382;2023-07-31T02:43:55;13.60;99.90
52321;DHT22;38261;54.090;13.382;2023-07-31T02:45:17;13.60;99.90
52321;DHT22;38261;54.090;13.382;2023-07-31T02:46:39;13.60;99.90
52321;DHT22;38261;54.090;13.382;2023-07-31T02:48:02;13.60;99.90
52321;DHT22;38261;54.090;13.382;2023-07-31T02:49:24;13.60;99.90
52321;DHT22;38261;54.090;13.382;2023-07-31T02:50:47;13.60;99.90
52321;DHT22;38261;54.090;13.382;2023-07-31T02:52:09;13.60;99.90
52321;DHT22;38261;54.090;13.382;2023-07-31T02:53:31;13.60;99.90
52321;DHT22;38261;54.090;13.382;2023-07-31T02:54:54;13.60;99.90
52321;DHT22;38261;54.090;13.382;2023-07-31T02:56:16;13.60;99.90
52321;DHT22;38261;54.090;13.382;2023-07-31T02:57:38;13.50;99.90
52321;DHT22;38261;54.090;13.382;2023-07-31T02:59:00;13.50;99.90
52321;DHT22;38261;54.090;13.382;2023-07-31T03:00:22;13.50;99.90
52321;DHT22;38261;54.090;13.382;2023-07-31T03:01:44;13.50;99.90
52321;DHT22;38261;54.090;13.382;2023-07-31T03:03:06;13.50;99.90
52321;DHT22;38261;54.090;13.382;2023-07-31T03:04:29;13.50;99.90
52321;DHT22;38261;54.090;13.382;2023-07-31T03:05:51;13.50;99.90
52321;DHT22;38261;54.090;13.382;2023-07-31T03:07:13;13.50;99.90
52321;DHT22;38261;54.090;13.382;2023-07-31T03:08:35;13.50;99.90
52321;DHT22;38261;54.090;13.382;2023-07-31T03:09:57;13.50;99.90
52321;DHT22;38261;54.090;13.382;2023-07-31T03:11:19;13.50;99.90
52321;DHT22;38261;54.090;13.382;2023-07-31T03:12:41;13.50;99.90
52321;DHT22;38261;54.090;13.382;2023-07-31T03:14:04;13.50;99.90
52321;DHT22;38261;54.090;13.382;2023-07-31T03:15:26;13.40;99.90
52321;DHT22;38261;54.090;13.382;2023-07-31T03:16:48;13.40;99.90
52321;DHT22;38261;54.090;13.382;2023-07-31T03:18:10;13.50;99.90
52321;DHT22;38261;54.090;13.382;2023-07-31T03:19:33;13.50;99.90
52321;DHT22;38261;54.090;13.382;2023-07-31T03:20:55;13.50;99.90
52321;DHT22;38261;54.090;13.382;2023-07-31T03:22:17;13.50;99.90
52321;DHT22;38261;54.090;13.382;2023-07-31T03:23:39;13.50;99.90
52321;DHT22;38261;54.090;13.382;2023-07-31T03:25:02;13.50;99.90
52321;DHT22;38261;54.090;13.382;2023-07-31T03:26:24;13.50;99.90
52321;DHT22;38261;54.090;13.382;2023-07-31T03:27:46;13.50;99.90
52321;DHT22;38261;54.090;13.382;2023-07-31T03:29:09;13.50;99.90
52321;DHT22;38261;54.090;13.382;2023-07-31T03:30:31;13.50;99.90
52321;DHT22;38261;54.090;13.382;2023-07-31T03:31:53;13.60;99.90
52321;DHT22;38261;54.090;13.382;2023-07-31T03:33:16;13.60;99.90
52321;DHT22;38261;54.090;13.382;2023-07-31T03:34:38;13.70;99.90
52321;DHT22;38261;54.090;13.382;2023-07-31T03:36:00;13.70;99.90
52321;DHT22;38261;54.090;13.382;2023-07-31T03:37:22;13.80;99.90
52321;DHT22;38261;54.090;13.382;2023-07-31T03:38:45;13.80;99.90
52321;DHT22;38261;54.090;13.382;2023-07-31T03:40:08;13.90;99.90
52321;DHT22;38261;54.090;13.382;2023-07-31T03:41:30;13.90;99.90
52321;DHT22;38261;54.090;13.382;2023-07-31T03:42:52;13.90;99.90
52321;DHT22;38261;54.090;13.382;2023-07-31T03:44:15;14.00;99.90
52321;DHT22;38261;54.090;13.382;2023-07-31T03:45:37;14.10;99.90
52321;DHT22;38261;54.090;13.382;2023-07-31T03:46:59;14.10;99.90
52321;DHT22;38261;54.090;13.382;2023-07-31T03:48:21;14.10;99.90
52321;DHT22;38261;54.090;13.382;2023-07-31T03:49:43;14.20;99.90
52321;DHT22;38261;54.090;13.382;2023-07-31T03:51:05;14.20;99.90
52321;DHT22;38261;54.090;13.382;2023-07-31T03:52:27;14.30;99.90
52321;DHT22;38261;54.090;13.382;2023-07-31T03:53:50;14.30;99.90
52321;DHT22;38261;54.090;13.382;2023-07-31T03:55:12;14.40;99.90
52321;DHT22;38261;54.090;13.382;2023-07-31T03:56:34;14.40;99.90
52321;DHT22;38261;54.090;13.382;2023-07-31T03:57:57;14.40;99.90
52321;DHT22;38261;54.090;13.382;2023-07-31T03:59:19;14.70;99.90
52321;DHT22;38261;54.090;13.382;2023-07-31T04:00:41;15.10;99.90
52321;DHT22;38261;54.090;13.382;2023-07-31T04:02:04;15.70;99.90
52321;DHT22;38261;54.090;13.382;2023-07-31T04:17:12;21.30;99.90
52321;DHT22;38261;54.090;13.382;2023-07-31T04:18:35;21.60;99.90
52321;DHT22;38261;54.090;13.382;2023-07-31T04:19:57;22.00;99.90
52321;DHT22;38261;54.090;13.382;2023-07-31T04:21:19;22.30;99.90
52321;DHT22;38261;54.090;13.382;2023-07-31T04:22:41;22.60;99.90
52321;DHT22;38261;54.090;13.382;2023-07-31T04:24:03;22.80;99.90
52321;DHT22;38261;54.090;13.382;2023-07-31T04:25:25;22.90;99.90
52321;DHT22;38261;54.090;13.382;2023-07-31T04:26:48;23.10;99.90
52321;DHT22;38261;54.090;13.382;2023-07-31T04:28:10;23.30;99.90
52321;DHT22;38261;54.090;13.382;2023-07-31T04:29:33;23.60;99.90
52321;DHT22;38261;54.090;13.382;2023-07-31T04:30:56;23.80;99.90
52321;DHT22;38261;54.090;13.382;2023-07-31T04:32:18;24.00;99.90
52321;DHT22;38261;54.090;13.382;2023-07-31T04:43:20;25.30;99.90
52321;DHT22;38261;54.090;13.382;2023-07-31T04:44:42;25.60;99.90
52321;DHT22;38261;54.090;13.382;2023-07-31T04:46:04;26.00;99.90
52321;DHT22;38261;54.090;13.382;2023-07-31T04:47:27;26.30;99.90
52321;DHT22;38261;54.090;13.382;2023-07-31T04:48:49;26.40;99.90
52321;DHT22;38261;54.090;13.382;2023-07-31T04:50:11;26.30;99.90
52321;DHT22;38261;54.090;13.382;2023-07-31T04:51:33;26.30;99.90
52321;DHT22;38261;54.090;13.382;2023-07-31T04:52:56;26.00;99.90
52321;DHT22;38261;54.090;13.382;2023-07-31T04:54:19;25.30;99.90
52321;DHT22;38261;54.090;13.382;2023-07-31T04:55:41;24.40;99.90
52321;DHT22;38261;54.090;13.382;2023-07-31T04:57:03;23.60;99.90
52321;DHT22;38261;54.090;13.382;2023-07-31T04:58:25;22.80;99.90
52321;DHT22;38261;54.090;13.382;2023-07-31T04:59:47;22.00;99.90
52321;DHT22;38261;54.090;13.382;2023-07-31T05:01:12;21.40;99.90
52321;DHT22;38261;54.090;13.382;2023-07-31T05:02:34;20.80;99.90
52321;DHT22;38261;54.090;13.382;2023-07-31T05:03:56;20.30;99.90
52321;DHT22;38261;54.090;13.382;2023-07-31T05:05:18;19.80;99.90
52321;DHT22;38261;54.090;13.382;2023-07-31T05:06:41;19.50;99.90
52321;DHT22;38261;54.090;13.382;2023-07-31T05:08:03;19.30;99.90
52321;DHT22;38261;54.090;13.382;2023-07-31T08:40:38;23.00;99.90
52321;DHT22;38261;54.090;13.382;2023-07-31T08:42:00;23.20;99.90
52321;DHT22;38261;54.090;13.382;2023-07-31T08:43:25;23.40;99.90
52321;DHT22;38261;54.090;13.382;2023-07-31T08:44:48;23.40;99.90
52321;DHT22;38261;54.090;13.382;2023-07-31T08:46:11;23.20;99.90
52321;DHT22;38261;54.090;13.382;2023-07-31T08:47:33;23.00;99.90
52321;DHT22;38261;54.090;13.382;2023-07-31T08:48:57;22.70;99.90
52321;DHT22;38261;54.090;13.382;2023-07-31T08:50:21;22.60;99.90
52321;DHT22;38261;54.090;13.382;2023-07-31T08:51:43;22.50;99.90
52321;DHT22;38261;54.090;13.382;2023-07-31T08:53:08;22.50;99.90
52321;DHT22;38261;54.090;13.382;2023-07-31T08:54:31;22.50;99.90
52321;DHT22;38261;54.090;13.382;2023-07-31T08:55:56;22.40;99.90
52321;DHT22;38261;54.090;13.382;2023-07-31T08:57:20;22.30;99.90
52321;DHT22;38261;54.090;13.382;2023-07-31T08:58:43;22.40;99.90
52321;DHT22;38261;54.090;13.382;2023-07-31T09:00:07;22.40;99.90
52321;DHT22;38261;54.090;13.382;2023-07-31T09:01:30;22.50;99.90
52321;DHT22;38261;54.090;13.382;2023-07-31T09:03:19;22.50;99.90
52321;DHT22;38261;54.090;13.382;2023-07-31T09:04:40;22.60;99.90
52321;DHT22;38261;54.090;13.382;2023-07-31T09:06:03;22.50;99.90
52321;DHT22;38261;54.090;13.382;2023-07-31T09:07:29;22.60;99.90
52321;DHT22;38261;54.090;13.382;2023-07-31T09:08:53;22.60;99.90
52321;DHT22;38261;54.090;13.382;2023-07-31T09:10:15;22.80;99.90
52321;DHT22;38261;54.090;13.382;2023-07-31T09:11:37;23.00;99.90
52321;DHT22;38261;54.090;13.382;2023-07-31T09:13:00;23.10;99.90
52321;DHT22;38261;54.090;13.382;2023-07-31T09:14:22;23.30;99.90
52321;DHT22;38261;54.090;13.382;2023-07-31T09:15:46;23.30;99.90
52321;DHT22;38261;54.090;13.382;2023-07-31T09:17:09;23.30;99.90
52321;DHT22;38261;54.090;13.382;2023-07-31T09:18:31;23.50;99.90
52321;DHT22;38261;54.090;13.382;2023-07-31T09:19:53;23.50;99.90
52321;DHT22;38261;54.090;13.382;2023-07-31T09:21:15;23.60;99.90
52321;DHT22;38261;54.090;13.382;2023-07-31T09:22:37;23.60;99.90
52321;DHT22;38261;54.090;13.382;2023-07-31T09:24:00;23.70;99.90
52321;DHT22;38261;54.090;13.382;2023-07-31T09:25:24;23.80;99.90
52321;DHT22;38261;54.090;13.382;2023-07-31T09:26:46;23.80;99.90
52321;DHT22;38261;54.090;13.382;2023-07-31T09:28:11;23.90;99.90
52321;DHT22;38261;54.090;13.382;2023-07-31T09:29:34;23.80;99.90
52321;DHT22;38261;54.090;13.382;2023-07-31T09:30:56;23.80;99.90
52321;DHT22;38261;54.090;13.382;2023-07-31T09:32:18;23.70;99.90
52321;DHT22;38261;54.090;13.382;2023-07-31T09:33:54;23.80;99.90
52321;DHT22;38261;54.090;13.382;2023-07-31T09:35:22;23.90;99.90
52321;DHT22;38261;54.090;13.382;2023-07-31T09:36:49;24.00;99.90
52321;DHT22;38261;54.090;13.382;2023-07-31T09:38:13;24.00;99.90
52321;DHT22;38261;54.090;13.382;2023-07-31T09:39:48;24.00;99.90
52321;DHT22;38261;54.090;13.382;2023-07-31T09:41:11;24.10;99.90
52321;DHT22;38261;54.090;13.382;2023-07-31T09:42:34;24.20;99.90
52321;DHT22;38261;54.090;13.382;2023-07-31T09:43:56;24.20;99.90
52321;DHT22;38261;54.090;13.382;2023-07-31T09:45:19;24.30;99.90
52321;DHT22;38261;54.090;13.382;2023-07-31T09:46:49;24.30;99.90
52321;DHT22;38261;54.090;13.382;2023-07-31T09:48:14;24.30;99.90
52321;DHT22;38261;54.090;13.382;2023-07-31T09:49:38;24.30;99.90
52321;DHT22;38261;54.090;13.382;2023-07-31T09:51:04;24.10;99.90
52321;DHT22;38261;54.090;13.382;2023-07-31T09:52:27;24.00;99.90
52321;DHT22;38261;54.090;13.382;2023-07-31T09:53:52;23.90;99.90
52321;DHT22;38261;54.090;13.382;2023-07-31T09:55:14;23.80;99.90
52321;DHT22;38261;54.090;13.382;2023-07-31T09:56:44;23.80;99.90
52321;DHT22;38261;54.090;13.382;2023-07-31T09:58:09;23.70;99.90
52321;DHT22;38261;54.090;13.382;2023-07-31T09:59:31;23.70;99.90
52321;DHT22;38261;54.090;13.382;2023-07-31T10:00:53;23.70;99.90
52321;DHT22;38261;54.090;13.382;2023-07-31T10:02:22;23.70;99.90
52321;DHT22;38261;54.090;13.382;2023-07-31T10:03:45;23.70;99.90
52321;DHT22;38261;54.090;13.382;2023-07-31T10:05:08;23.70;99.90
52321;DHT22;38261;54.090;13.382;2023-07-31T10:06:31;23.70;99.90
52321;DHT22;38261;54.090;13.382;2023-07-31T10:07:54;23.80;99.90
52321;DHT22;38261;54.090;13.382;2023-07-31T10:09:18;23.80;99.90
52321;DHT22;38261;54.090;13.382;2023-07-31T10:10:45;23.90;99.90
52321;DHT22;38261;54.090;13.382;2023-07-31T10:12:10;24.00;99.90
52321;DHT22;38261;54.090;13.382;2023-07-31T10:13:34;24.00;99.90
52321;DHT22;38261;54.090;13.382;2023-07-31T10:14:56;24.00;99.90
52321;DHT22;38261;54.090;13.382;2023-07-31T10:16:19;23.90;99.90
52321;DHT22;38261;54.090;13.382;2023-07-31T10:17:42;23.80;99.90
52321;DHT22;38261;54.090;13.382;2023-07-31T10:19:05;23.70;99.90
52321;DHT22;38261;54.090;13.382;2023-07-31T10:20:28;23.60;99.90
52321;DHT22;38261;54.090;13.382;2023-07-31T10:21:51;23.60;99.90
52321;DHT22;38261;54.090;13.382;2023-07-31T10:23:14;23.60;99.90
52321;DHT22;38261;54.090;13.382;2023-07-31T10:24:38;23.60;99.90
52321;DHT22;38261;54.090;13.382;2023-07-31T10:26:01;23.70;99.90
52321;DHT22;38261;54.090;13.382;2023-07-31T10:27:24;23.70;99.90
52321;DHT22;38261;54.090;13.382;2023-07-31T10:28:47;23.70;99.90
52321;DHT22;38261;54.090;13.382;2023-07-31T10:30:15;23.80;99.90
52321;DHT22;38261;54.090;13.382;2023-07-31T10:31:41;23.80;99.90
52321;DHT22;38261;54.090;13.382;2023-07-31T10:33:05;23.90;99.90
52321;DHT22;38261;54.090;13.382;2023-07-31T10:34:28;24.00;99.90
52321;DHT22;38261;54.090;13.382;2023-07-31T10:35:50;24.00;99.90
52321;DHT22;38261;54.090;13.382;2023-07-31T10:38:48;24.20;99.90
52321;DHT22;38261;54.090;13.382;2023-07-31T10:40:18;24.30;99.90
52321;DHT22;38261;54.090;13.382;2023-07-31T10:41:41;24.40;99.90
52321;DHT22;38261;54.090;13.382;2023-07-31T10:43:05;24.60;99.90
52321;DHT22;38261;54.090;13.382;2023-07-31T10:44:27;24.60;99.90
52321;DHT22;38261;54.090;13.382;2023-07-31T10:45:49;24.60;99.90
52321;DHT22;38261;54.090;13.382;2023-07-31T10:47:14;24.60;99.90
52321;DHT22;38261;54.090;13.382;2023-07-31T10:48:41;24.70;99.90
52321;DHT22;38261;54.090;13.382;2023-07-31T10:50:13;24.70;99.90
52321;DHT22;38261;54.090;13.382;2023-07-31T10:51:37;24.70;99.90
52321;DHT22;38261;54.090;13.382;2023-07-31T10:53:02;24.80;99.90
52321;DHT22;38261;54.090;13.382;2023-07-31T10:54:27;24.70;99.90
52321;DHT22;38261;54.090;13.382;2023-07-31T10:55:49;24.70;99.90
52321;DHT22;38261;54.090;13.382;2023-07-31T10:57:22;24.80;99.90
52321;DHT22;38261;54.090;13.382;2023-07-31T10:58:44;25.00;99.90
52321;DHT22;38261;54.090;13.382;2023-07-31T11:00:30;25.10;99.90
52321;DHT22;38261;54.090;13.382;2023-07-31T11:01:54;25.00;99.90
52321;DHT22;38261;54.090;13.382;2023-07-31T11:03:19;25.10;99.90
52321;DHT22;38261;54.090;13.382;2023-07-31T11:04:45;25.20;99.90
52321;DHT22;38261;54.090;13.382;2023-07-31T11:06:29;25.10;99.90
52321;DHT22;38261;54.090;13.382;2023-07-31T11:07:56;25.10;99.90
52321;DHT22;38261;54.090;13.382;2023-07-31T11:09:18;25.20;99.90
52321;DHT22;38261;54.090;13.382;2023-07-31T11:10:40;25.20;99.90
52321;DHT22;38261;54.090;13.382;2023-07-31T11:12:02;25.10;99.90
52321;DHT22;38261;54.090;13.382;2023-07-31T11:13:25;25.10;99.90
52321;DHT22;38261;54.090;13.382;2023-07-31T11:14:54;25.00;99.90
52321;DHT22;38261;54.090;13.382;2023-07-31T11:16:24;25.00;99.90
52321;DHT22;38261;54.090;13.382;2023-07-31T11:17:46;25.10;99.90
52321;DHT22;38261;54.090;13.382;2023-07-31T11:19:09;25.10;99.90
52321;DHT22;38261;54.090;13.382;2023-07-31T11:20:32;25.00;99.90
52321;DHT22;38261;54.090;13.382;2023-07-31T11:21:55;25.00;99.90
52321;DHT22;38261;54.090;13.382;2023-07-31T11:23:18;25.10;99.90
52321;DHT22;38261;54.090;13.382;2023-07-31T11:24:41;25.20;99.90
52321;DHT22;38261;54.090;13.382;2023-07-31T11:26:05;25.20;99.90
52321;DHT22;38261;54.090;13.382;2023-07-31T11:27:28;25.20;99.90
52321;DHT22;38261;54.090;13.382;2023-07-31T11:28:51;25.20;99.90
52321;DHT22;38261;54.090;13.382;2023-07-31T11:30:13;25.20;99.90
52321;DHT22;38261;54.090;13.382;2023-07-31T11:31:42;25.20;99.90
52321;DHT22;38261;54.090;13.382;2023-07-31T11:33:05;25.20;99.90
52321;DHT22;38261;54.090;13.382;2023-07-31T11:34:28;25.20;99.90
52321;DHT22;38261;54.090;13.382;2023-07-31T11:35:50;25.20;99.90
52321;DHT22;38261;54.090;13.382;2023-07-31T11:37:12;25.10;99.90
52321;DHT22;38261;54.090;13.382;2023-07-31T11:38:34;25.10;99.90
52321;DHT22;38261;54.090;13.382;2023-07-31T11:40:00;24.90;99.90
52321;DHT22;38261;54.090;13.382;2023-07-31T11:41:22;24.80;99.90
52321;DHT22;38261;54.090;13.382;2023-07-31T11:42:44;24.70;99.90
52321;DHT22;38261;54.090;13.382;2023-07-31T11:44:06;24.60;99.90
52321;DHT22;38261;54.090;13.382;2023-07-31T11:45:52;24.50;99.90
52321;DHT22;38261;54.090;13.382;2023-07-31T11:47:15;24.40;99.90
52321;DHT22;38261;54.090;13.382;2023-07-31T11:48:39;24.40;99.90
52321;DHT22;38261;54.090;13.382;2023-07-31T11:50:05;24.50;99.90
52321;DHT22;38261;54.090;13.382;2023-07-31T11:51:28;24.50;99.90
52321;DHT22;38261;54.090;13.382;2023-07-31T11:54:18;24.60;99.90
52321;DHT22;38261;54.090;13.382;2023-07-31T11:55:41;24.80;99.90
52321;DHT22;38261;54.090;13.382;2023-07-31T15:02:43;16.40;99.90
52321;DHT22;38261;54.090;13.382;2023-07-31T15:04:06;16.50;99.90
52321;DHT22;38261;54.090;13.382;2023-07-31T15:05:28;16.50;99.90
52321;DHT22;38261;54.090;13.382;2023-07-31T15:06:51;16.50;99.90
52321;DHT22;38261;54.090;13.382;2023-07-31T15:08:14;16.50;99.90
52321;DHT22;38261;54.090;13.382;2023-07-31T15:09:36;16.50;99.90
52321;DHT22;38261;54.090;13.382;2023-07-31T15:10:58;16.40;99.90
52321;DHT22;38261;54.090;13.382;2023-07-31T15:12:20;16.40;99.90
52321;DHT22;38261;54.090;13.382;2023-07-31T15:13:43;16.40;99.90
52321;DHT22;38261;54.090;13.382;2023-07-31T15:15:06;16.50;99.90
52321;DHT22;38261;54.090;13.382;2023-07-31T15:16:28;16.60;99.90
52321;DHT22;38261;54.090;13.382;2023-07-31T15:17:52;16.60;99.90
52321;DHT22;38261;54.090;13.382;2023-07-31T15:19:14;16.70;99.90
52321;DHT22;38261;54.090;13.382;2023-07-31T15:20:37;16.80;99.90
52321;DHT22;38261;54.090;13.382;2023-07-31T15:21:59;16.90;99.90
52321;DHT22;38261;54.090;13.382;2023-07-31T15:23:21;16.90;99.90
52321;DHT22;38261;54.090;13.382;2023-07-31T15:24:45;16.90;99.90
52321;DHT22;38261;54.090;13.382;2023-07-31T15:26:07;16.90;99.90
52321;DHT22;38261;54.090;13.382;2023-07-31T15:27:29;16.90;99.90
52321;DHT22;38261;54.090;13.382;2023-07-31T15:28:57;16.90;99.90
52321;DHT22;38261;54.090;13.382;2023-07-31T15:30:22;16.90;99.90
52321;DHT22;38261;54.090;13.382;2023-07-31T15:31:44;16.80;99.90
52321;DHT22;38261;54.090;13.382;2023-07-31T15:33:07;16.80;99.90
52321;DHT22;38261;54.090;13.382;2023-07-31T15:34:29;16.70;99.90
52321;DHT22;38261;54.090;13.382;2023-07-31T15:35:52;16.60;99.90
52321;DHT22;38261;54.090;13.382;2023-07-31T15:37:17;16.50;99.90
52321;DHT22;38261;54.090;13.382;2023-07-31T15:38:39;16.50;99.90
52321;DHT22;38261;54.090;13.382;2023-07-31T15:40:02;16.50;99.90
52321;DHT22;38261;54.090;13.382;2023-07-31T15:41:24;16.40;99.90
52321;DHT22;38261;54.090;13.382;2023-07-31T15:42:47;16.40;99.90
52321;DHT22;38261;54.090;13.382;2023-07-31T19:08:28;16.00;99.90
52321;DHT22;38261;54.090;13.382;2023-07-31T19:09:50;16.00;99.90
52321;DHT22;38261;54.090;13.382;2023-07-31T19:11:25;16.00;99.90
52321;DHT22;38261;54.090;13.382;2023-07-31T19:12:54;16.00;99.90
52321;DHT22;38261;54.090;13.382;2023-07-31T19:14:16;16.00;99.90
52321;DHT22;38261;54.090;13.382;2023-07-31T19:15:38;16.00;99.90
52321;DHT22;38261;54.090;13.382;2023-07-31T19:17:00;15.90;99.90
52321;DHT22;38261;54.090;13.382;2023-07-31T19:18:22;15.90;99.90
52321;DHT22;38261;54.090;13.382;2023-07-31T19:19:44;15.90;99.90
52321;DHT22;38261;54.090;13.382;2023-07-31T19:21:06;15.90;99.90
52321;DHT22;38261;54.090;13.382;2023-07-31T19:22:29;15.90;99.90
52321;DHT22;38261;54.090;13.382;2023-07-31T19:23:51;15.90;99.90
52321;DHT22;38261;54.090;13.382;2023-07-31T19:25:13;15.90;99.90
52321;DHT22;38261;54.090;13.382;2023-07-31T19:26:35;15.90;99.90
52321;DHT22;38261;54.090;13.382;2023-07-31T19:27:58;15.80;99.90
52321;DHT22;38261;54.090;13.382;2023-07-31T19:29:20;15.80;99.90
52321;DHT22;38261;54.090;13.382;2023-07-31T19:30:42;15.80;99.90
52321;DHT22;38261;54.090;13.382;2023-07-31T19:32:05;15.80;99.90
52321;DHT22;38261;54.090;13.382;2023-07-31T19:33:27;15.80;99.90
52321;DHT22;38261;54.090;13.382;2023-07-31T19:34:49;15.80;99.90
52321;DHT22;38261;54.090;13.382;2023-07-31T19:36:12;15.80;99.90
52321;DHT22;38261;54.090;13.382;2023-07-31T19:37:34;15.80;99.90
52321;DHT22;38261;54.090;13.382;2023-07-31T19:38:56;15.80;99.90
52321;DHT22;38261;54.090;13.382;2023-07-31T19:40:19;15.80;99.90
52321;DHT22;38261;54.090;13.382;2023-07-31T19:41:44;15.80;99.90
52321;DHT22;38261;54.090;13.382;2023-07-31T19:43:06;15.80;99.90
52321;DHT22;38261;54.090;13.382;2023-07-31T19:44:28;15.80;99.90
52321;DHT22;38261;54.090;13.382;2023-07-31T19:45:51;15.80;99.90
52321;DHT22;38261;54.090;13.382;2023-07-31T19:47:13;15.90;99.90
52321;DHT22;38261;54.090;13.382;2023-07-31T19:48:35;15.90;99.90
52321;DHT22;38261;54.090;13.382;2023-07-31T19:49:58;15.90;99.90
52321;DHT22;38261;54.090;13.382;2023-07-31T19:51:20;15.90;99.90
52321;DHT22;38261;54.090;13.382;2023-07-31T19:52:42;15.90;99.90
52321;DHT22;38261;54.090;13.382;2023-07-31T19:54:04;15.90;99.90
52321;DHT22;38261;54.090;13.382;2023-07-31T19:55:27;15.90;99.90
52321;DHT22;38261;54.090;13.382;2023-07-31T19:56:49;15.90;99.90
52321;DHT22;38261;54.090;13.382;2023-07-31T19:58:12;15.90;99.90
52321;DHT22;38261;54.090;13.382;2023-07-31T19:59:34;16.00;99.90
52321;DHT22;38261;54.090;13.382;2023-07-31T20:00:56;16.00;99.90
52321;DHT22;38261;54.090;13.382;2023-07-31T20:02:18;16.00;99.90
52321;DHT22;38261;54.090;13.382;2023-07-31T20:03:40;16.20;99.90
52321;DHT22;38261;54.090;13.382;2023-07-31T20:05:03;16.00;99.90
52321;DHT22;38261;54.090;13.382;2023-07-31T20:06:25;16.10;99.90
52321;DHT22;38261;54.090;13.382;2023-07-31T20:07:47;16.10;99.90
52321;DHT22;38261;54.090;13.382;2023-07-31T20:09:10;16.10;99.90
52321;DHT22;38261;54.090;13.382;2023-07-31T20:10:35;16.10;99.90
52321;DHT22;38261;54.090;13.382;2023-07-31T20:11:57;16.20;99.90
52321;DHT22;38261;54.090;13.382;2023-07-31T20:13:20;16.20;99.90
52321;DHT22;38261;54.090;13.382;2023-07-31T20:14:43;16.30;99.90
52321;DHT22;38261;54.090;13.382;2023-07-31T20:16:05;16.30;99.90
52321;DHT22;38261;54.090;13.382;2023-07-31T20:17:28;16.30;99.90
52321;DHT22;38261;54.090;13.382;2023-07-31T20:18:51;16.30;99.90
52321;DHT22;38261;54.090;13.382;2023-07-31T20:20:13;16.30;99.90
52321;DHT22;38261;54.090;13.382;2023-07-31T20:21:35;16.40;99.90
52321;DHT22;38261;54.090;13.382;2023-07-31T20:23:00;16.40;99.90
52321;DHT22;38261;54.090;13.382;2023-07-31T20:24:26;16.40;99.90
52321;DHT22;38261;54.090;13.382;2023-07-31T20:25:48;16.40;99.90
52321;DHT22;38261;54.090;13.382;2023-07-31T20:27:14;16.50;99.90
52321;DHT22;38261;54.090;13.382;2023-07-31T20:28:38;16.50;99.90